Cocos, Brazil
Current Conditions -  °F | °C
As of 5:00 PM on Sunday 21 Dec 2014 (Local Time) from SBMK Reporting Station
Rain Showers Rain Showers  
Wind Chill: 81°   Ceiling: 9000
Heat Index: 83°   Visibility: 6mi
Dew Point: 66°   Wind: 0mph
Humidity: 61%   Direction: NA
Pressure: 29.94"   Gusts: NA
Location:  14.18°S, 44.53°W
Report Text: SBMK 212000Z 00000KT 9999 VCSH FEW040 FEW045TCU OVC090 27/19 Q1014
Loading
Personal Weather Stations






























Interactive Weather Map New forecast layout! Learn more

10-Day Weather Forecast

Advertisements
Track Severe Weather on mobile